Time;durP1;ratioP1;P1;durP2;ratioP2;P2;SDS_P1;SDS_P2;PMS_P1;PMS_P2;Temp;Humidity;BMP_temperature;BMP_pressure;BME280_temperature;BME280_humidity;BME280_pressure;Samples;Min_cycle;Max_cycle;Signal;HPM_P1;HPM_P2
2022/04/12 00:00:15;;;;;;;4.53;2.13;;;11.10;93.30;;;;;;4996980;28;20022;-63
2022/04/12 00:02:41;;;;;;;3.42;2.20;;;11.10;93.60;;;;;;4997558;28;20441;-63
2022/04/12 00:05:07;;;;;;;4.50;2.27;;;11.10;93.70;;;;;;5014557;28;20468;-65
2022/04/12 00:07:33;;;;;;;5.18;1.98;;;11.00;94.40;;;;;;5013897;28;20026;-64
2022/04/12 00:09:58;;;;;;;4.67;2.07;;;11.00;94.90;;;;;;5014242;28;20171;-63
2022/04/12 00:12:24;;;;;;;5.47;2.83;;;10.90;95.50;;;;;;5014447;28;20022;-64
2022/04/12 00:14:50;;;;;;;4.93;2.30;;;10.90;96.20;;;;;;5014464;28;20022;-63
2022/04/12 00:20:01;;;;;;;3.38;2.00;;;10.80;97.10;;;;;;5014111;28;20477;-63
2022/04/12 00:22:26;;;;;;;;;;;10.70;97.60;;;;;;5014668;28;20018;-64
2022/04/12 00:24:53;;;;;;;4.68;2.10;;;10.70;97.90;;;;;;5014261;28;19928;-63
2022/04/12 00:27:19;;;;;;;4.47;2.38;;;10.70;98.20;;;;;;5014621;28;20026;-65
2022/04/12 00:29:44;;;;;;;3.77;2.03;;;10.60;98.60;;;;;;5014403;28;20029;-64
2022/04/12 00:32:10;;;;;;;3.43;2.10;;;10.60;98.90;;;;;;5013906;28;20033;-64
2022/04/12 00:34:36;;;;;;;6.37;2.00;;;10.50;99.70;;;;;;4996005;28;20053;-64
2022/04/12 00:37:01;;;;;;;2.67;1.67;;;10.50;99.70;;;;;;4996836;28;20571;-63
2022/04/12 00:39:27;;;;;;;4.97;1.83;;;10.50;99.90;;;;;;5014276;28;20289;-63
2022/04/12 00:41:52;;;;;;;4.33;2.00;;;10.40;99.90;;;;;;5013525;28;20032;-64
2022/04/12 00:44:18;;;;;;;5.50;2.63;;;10.40;99.90;;;;;;5000885;28;20125;-65
2022/04/12 00:46:43;;;;;;;5.00;2.30;;;10.30;99.90;;;;;;5019306;28;20037;-65
2022/04/12 00:49:09;;;;;;;6.27;2.20;;;10.30;99.90;;;;;;5015810;28;20049;-65
2022/04/12 00:51:34;;;;;;;4.73;2.20;;;10.30;99.90;;;;;;5016075;28;20112;-65
2022/04/12 00:54:01;;;;;;;4.87;1.97;;;10.20;99.90;;;;;;4996499;28;20061;-64
2022/04/12 00:56:26;;;;;;;3.58;2.20;;;10.20;99.90;;;;;;5013606;28;20065;-64
2022/04/12 00:58:53;;;;;;;3.33;1.90;;;10.20;99.90;;;;;;5013775;28;20080;-64
2022/04/12 01:01:18;;;;;;;4.35;1.98;;;10.20;99.90;;;;;;5013622;28;20026;-64
2022/04/12 01:03:44;;;;;;;4.90;2.63;;;10.10;99.90;;;;;;4995699;28;20535;-64
2022/04/12 01:06:10;;;;;;;5.13;2.97;;;10.10;99.90;;;;;;5013429;28;20054;-65
2022/04/12 01:08:36;;;;;;;5.95;3.08;;;10.00;99.90;;;;;;5013031;28;20445;-64
2022/04/12 01:11:07;;;;;;;3.63;2.30;;;10.00;99.90;;;;;;5013125;28;20022;-64
2022/04/12 01:13:34;;;;;;;4.93;2.40;;;10.00;99.90;;;;;;5013450;28;20026;-65
2022/04/12 01:15:59;;;;;;;5.07;2.50;;;9.90;99.90;;;;;;4995304;28;20041;-64
2022/04/12 01:18:25;;;;;;;4.00;2.03;;;9.90;99.90;;;;;;5012861;28;20026;-64
2022/04/12 01:20:51;;;;;;;5.25;2.33;;;9.80;99.90;;;;;;5013392;28;20217;-64
2022/04/12 01:23:26;;;;;;;6.40;2.70;;;9.80;99.90;;;;;;5013226;28;20026;-64
2022/04/12 01:25:51;;;;;;;6.82;2.50;;;9.80;99.90;;;;;;4995521;28;20444;-64
2022/04/12 01:28:17;;;;;;;5.30;2.20;;;9.70;99.90;;;;;;5013020;28;20149;-65
2022/04/12 01:30:42;;;;;;;4.37;2.17;;;9.70;99.90;;;;;;4995450;28;20100;-65
2022/04/12 01:33:08;;;;;;;4.20;2.47;;;9.70;99.90;;;;;;4995439;28;20044;-65
2022/04/12 01:35:35;;;;;;;5.07;2.60;;;9.70;99.90;;;;;;4995294;28;20076;-64
2022/04/12 01:38:01;;;;;;;7.63;2.97;;;9.60;99.90;;;;;;4995283;28;20356;-65
2022/04/12 01:40:27;;;;;;;4.55;2.38;;;9.60;99.90;;;;;;5013164;28;20109;-64
2022/04/12 01:42:53;;;;;;;7.07;2.58;;;9.50;99.90;;;;;;5013063;28;20036;-64
2022/04/12 01:45:20;;;;;;;4.43;2.47;;;9.50;99.90;;;;;;5013282;28;20018;-64
2022/04/12 01:47:46;;;;;;;5.43;2.50;;;9.40;99.90;;;;;;5020795;28;20148;-65
2022/04/12 01:50:11;;;;;;;4.47;2.40;;;9.40;99.90;;;;;;5017605;28;20073;-66
2022/04/12 01:52:37;;;;;;;3.60;2.43;;;9.40;99.90;;;;;;5016428;28;20056;-65
2022/04/12 01:55:04;;;;;;;6.40;3.20;;;9.40;99.90;;;;;;4997447;28;20029;-66
2022/04/12 01:57:29;;;;;;;3.45;2.47;;;9.30;99.90;;;;;;4997599;28;20635;-65
2022/04/12 01:59:57;;;;;;;4.50;2.55;;;9.30;99.90;;;;;;5014052;28;20056;-65
2022/04/12 02:02:22;;;;;;;7.20;3.63;;;9.30;99.90;;;;;;5013622;28;20101;-65
2022/04/12 02:04:48;;;;;;;3.87;2.50;;;9.30;99.90;;;;;;5013304;28;20069;-65
2022/04/12 02:07:13;;;;;;;9.10;2.87;;;9.20;99.90;;;;;;4995501;28;20026;-65
2022/04/12 02:09:39;;;;;;;4.00;2.20;;;9.10;99.90;;;;;;5012774;28;20033;-65
2022/04/12 02:12:05;;;;;;;5.53;2.63;;;9.10;99.90;;;;;;5012785;28;20096;-65
2022/04/12 02:14:31;;;;;;;5.57;2.33;;;9.10;99.90;;;;;;4995202;28;20033;-66
2022/04/12 02:16:56;;;;;;;3.23;2.37;;;9.10;99.90;;;;;;4995722;28;20120;-65
2022/04/12 02:19:22;;;;;;;4.77;2.27;;;9.00;99.90;;;;;;5012581;28;20547;-66
2022/04/12 02:21:47;;;;;;;4.97;2.40;;;9.00;99.90;;;;;;5013250;28;20366;-65
2022/04/12 02:24:13;;;;;;;3.57;1.90;;;9.00;99.90;;;;;;5012856;28;20084;-65
2022/04/12 02:26:39;;;;;;;4.55;2.00;;;9.10;99.90;;;;;;4995425;28;20043;-65
2022/04/12 02:29:06;;;;;;;4.57;2.10;;;9.10;99.90;;;;;;4995076;28;20030;-65
2022/04/12 02:31:32;;;;;;;4.70;2.15;;;9.10;99.90;;;;;;5017078;28;20752;-65
2022/04/12 02:33:58;;;;;;;5.13;2.33;;;9.10;99.90;;;;;;5017374;28;20036;-65
2022/04/12 02:36:23;;;;;;;5.23;3.07;;;9.20;99.90;;;;;;5016238;28;20041;-64
2022/04/12 02:38:49;;;;;;;5.57;2.30;;;9.20;99.90;;;;;;5016276;28;20029;-66
2022/04/12 02:41:14;;;;;;;6.40;2.43;;;9.20;99.90;;;;;;4998959;28;20088;-64
2022/04/12 02:43:40;;;;;;;5.00;2.50;;;9.10;99.90;;;;;;5000110;28;20107;-64
2022/04/12 02:46:05;;;;;;;4.37;2.30;;;9.10;99.90;;;;;;5016007;28;20029;-65
2022/04/12 02:48:31;;;;;;;4.43;2.37;;;9.10;99.90;;;;;;5015704;28;20381;-64
2022/04/12 02:50:57;;;;;;;4.70;2.53;;;9.10;99.90;;;;;;5015899;28;20030;-64
2022/04/12 02:53:22;;;;;;;4.73;2.50;;;9.10;99.90;;;;;;5015776;28;20030;-64
2022/04/12 02:55:48;;;;;;;4.00;2.37;;;9.10;99.90;;;;;;4998631;28;20113;-65
2022/04/12 02:58:13;;;;;;;6.00;2.70;;;9.00;99.90;;;;;;5016454;28;20060;-65
2022/04/12 03:00:39;;;;;;;4.32;3.13;;;9.00;99.90;;;;;;5015442;28;20026;-65
2022/04/12 03:03:05;;;;;;;5.47;3.00;;;9.00;99.90;;;;;;4998180;28;20022;-64
2022/04/12 03:05:30;;;;;;;5.03;3.20;;;9.00;99.90;;;;;;5015471;28;20029;-65
2022/04/12 03:07:56;;;;;;;6.70;2.70;;;9.00;99.90;;;;;;5015281;28;20041;-64
2022/04/12 03:10:21;;;;;;;3.23;2.57;;;8.90;99.90;;;;;;5015955;28;20054;-65
2022/04/12 03:12:47;;;;;;;6.90;2.80;;;8.80;99.90;;;;;;5015437;28;20388;-65
2022/04/12 03:15:13;;;;;;;5.03;2.80;;;8.80;99.90;;;;;;5015120;28;20030;-65
2022/04/12 03:17:38;;;;;;;5.57;3.17;;;8.80;99.90;;;;;;5015143;28;20774;-64
2022/04/12 03:20:04;;;;;;;7.70;4.70;;;8.70;99.90;;;;;;5015104;28;20022;-65
2022/04/12 03:22:30;;;;;;;6.70;3.80;;;8.60;99.90;;;;;;4997377;28;20024;-65
2022/04/12 03:24:56;;;;;;;8.73;3.70;;;8.60;99.90;;;;;;5015378;28;20384;-65
2022/04/12 03:27:21;;;;;;;5.95;3.88;;;8.50;99.90;;;;;;5015186;28;20028;-65
2022/04/12 03:29:47;;;;;;;4.90;3.70;;;8.50;99.90;;;;;;5015128;28;20108;-65
2022/04/12 03:32:13;;;;;;;8.50;3.80;;;8.50;99.90;;;;;;5014906;28;20084;-66
2022/04/12 03:34:40;;;;;;;8.97;3.63;;;8.40;99.90;;;;;;5014807;28;20045;-65
2022/04/12 03:37:06;;;;;;;4.55;2.92;;;8.40;99.90;;;;;;5015124;28;20021;-65
2022/04/12 03:39:31;;;;;;;6.90;3.42;;;8.40;99.90;;;;;;5014720;28;20100;-65
2022/04/12 03:41:57;;;;;;;6.90;3.70;;;8.40;99.90;;;;;;4996423;28;20519;-65
2022/04/12 03:44:23;;;;;;;6.50;3.30;;;8.40;99.90;;;;;;5014817;28;20025;-64
2022/04/12 03:46:48;;;;;;;3.87;2.77;;;8.40;99.90;;;;;;5016381;28;20057;-65
2022/04/12 03:49:15;;;;;;;6.50;3.17;;;8.30;99.90;;;;;;5015431;28;20084;-64
2022/04/12 03:51:40;;;;;;;5.05;3.00;;;8.40;99.90;;;;;;5014851;28;20077;-64
2022/04/12 03:54:06;;;;;;;5.03;3.30;;;8.30;99.90;;;;;;4997474;28;20558;-64
2022/04/12 03:56:31;;;;;;;10.57;3.37;;;8.30;99.90;;;;;;5015070;28;20026;-64
2022/04/12 03:59:00;;;;;;;5.43;3.33;;;8.20;99.90;;;;;;5014408;28;20026;-66
2022/04/12 04:01:27;;;;;;;7.88;3.60;;;8.20;99.90;;;;;;5014831;28;20106;-64
2022/04/12 04:03:52;;;;;;;5.18;3.10;;;8.20;99.90;;;;;;5014984;28;20025;-64
2022/04/12 04:06:18;;;;;;;5.70;3.20;;;8.20;99.90;;;;;;5014633;28;20038;-64
2022/04/12 04:08:44;;;;;;;5.53;3.30;;;8.10;99.90;;;;;;4996773;28;20076;-64
2022/04/12 04:11:09;;;;;;;8.85;3.28;;;8.10;99.90;;;;;;4996635;28;20026;-64
2022/04/12 04:13:36;;;;;;;5.37;3.43;;;8.10;99.90;;;;;;5014708;28;20052;-64
2022/04/12 04:16:02;;;;;;;;;;;8.00;99.90;;;;;;5014827;28;20044;-64
2022/04/12 04:18:28;;;;;;;6.15;3.03;;;8.00;99.90;;;;;;5014483;28;20382;-64
2022/04/12 04:20:53;;;;;;;5.93;3.30;;;7.90;99.90;;;;;;5013802;28;20034;-64
2022/04/12 04:23:21;;;;;;;7.70;3.67;;;7.90;99.90;;;;;;5013911;28;20068;-65
2022/04/12 04:25:47;;;;;;;5.63;3.50;;;7.90;99.90;;;;;;5013912;28;20034;-64
2022/04/12 04:28:12;;;;;;;4.93;3.60;;;7.90;99.90;;;;;;5013774;28;20052;-64
2022/04/12 04:30:44;;;;;;;7.40;3.92;;;7.90;99.90;;;;;;5013685;28;20816;-65
2022/04/12 04:33:10;;;;;;;5.28;3.40;;;7.90;99.90;;;;;;5013919;28;20088;-64
2022/04/12 04:35:36;;;;;;;4.57;3.55;;;7.90;99.90;;;;;;5013731;28;20084;-63
2022/04/12 04:38:02;;;;;;;6.35;3.28;;;7.80;99.90;;;;;;5014172;28;20034;-63
2022/04/12 04:40:27;;;;;;;4.50;3.25;;;7.80;99.90;;;;;;4995996;28;20026;-63
2022/04/12 04:42:53;;;;;;;6.70;3.70;;;7.80;99.90;;;;;;5013895;28;20080;-64
2022/04/12 04:45:19;;;;;;;6.25;3.80;;;7.80;99.90;;;;;;5013556;28;20488;-66
2022/04/12 04:47:53;;;;;;;5.70;3.67;;;7.80;99.90;;;;;;5013914;28;20045;-66
2022/04/12 04:50:21;;;;;;;4.82;3.55;;;7.80;99.90;;;;;;4995941;28;20042;-65
2022/04/12 04:52:47;;;;;;;6.82;3.58;;;7.80;99.90;;;;;;5013059;28;20034;-64
2022/04/12 04:55:13;;;;;;;8.98;4.20;;;7.80;99.90;;;;;;5013985;28;20026;-65
2022/04/12 04:57:40;;;;;;;8.18;4.60;;;7.90;99.90;;;;;;5013442;28;20037;-65
2022/04/12 05:00:17;;;;;;;5.05;3.70;;;7.80;99.90;;;;;;5014104;28;20026;-66
2022/04/12 05:02:43;;;;;;;;;;;7.80;99.90;;;;;;4998093;28;20057;-66
2022/04/12 05:05:10;;;;;;;8.60;4.55;;;7.90;99.90;;;;;;5014740;28;20249;-68
2022/04/12 05:07:36;;;;;;;6.28;4.03;;;7.90;99.90;;;;;;5014187;28;20049;-68
2022/04/12 05:10:02;;;;;;;;;;;7.90;99.90;;;;;;5014228;28;20038;-68
2022/04/12 05:12:27;;;;;;;7.90;4.00;;;8.00;99.90;;;;;;5013321;28;19929;-67
2022/04/12 05:14:53;;;;;;;7.77;5.00;;;8.00;99.90;;;;;;5013540;28;20025;-66
2022/04/12 05:17:26;;;;;;;7.07;4.30;;;8.00;99.90;;;;;;5013498;28;20041;-65
2022/04/12 05:19:52;;;;;;;7.30;4.07;;;8.10;99.90;;;;;;4995266;28;20029;-65
2022/04/12 05:22:18;;;;;;;6.35;4.15;;;8.10;99.90;;;;;;5013465;28;20018;-63
2022/04/12 05:24:44;;;;;;;9.02;4.60;;;8.20;99.90;;;;;;5013115;28;20032;-63
2022/04/12 05:27:10;;;;;;;8.00;4.20;;;8.30;99.90;;;;;;5013069;28;20022;-63
2022/04/12 05:29:36;;;;;;;9.97;4.40;;;8.30;99.90;;;;;;5012788;28;20117;-63
2022/04/12 05:32:02;;;;;;;7.18;4.10;;;8.30;99.90;;;;;;5013650;28;20030;-64
2022/04/12 05:34:28;;;;;;;7.07;4.43;;;8.40;99.90;;;;;;5018332;28;20057;-65
2022/04/12 05:36:53;;;;;;;7.20;4.10;;;8.50;99.90;;;;;;5019199;28;20084;-64
2022/04/12 05:39:19;;;;;;;11.53;4.07;;;8.50;99.90;;;;;;5013641;28;20030;-65
2022/04/12 05:41:45;;;;;;;7.17;4.43;;;8.50;99.90;;;;;;5013519;28;20075;-65
2022/04/12 05:44:10;;;;;;;7.93;4.17;;;8.50;99.90;;;;;;5013185;28;20025;-64
2022/04/12 05:46:36;;;;;;;8.50;4.57;;;8.40;99.90;;;;;;5012934;28;20022;-64
2022/04/12 05:49:01;;;;;;;6.37;4.30;;;8.40;99.90;;;;;;5012563;28;20128;-63
2022/04/12 05:51:27;;;;;;;6.90;4.20;;;8.30;99.90;;;;;;5012667;28;20084;-63
2022/04/12 05:53:52;;;;;;;9.30;4.27;;;8.30;99.90;;;;;;5012544;28;20034;-62
2022/04/12 05:56:18;;;;;;;6.33;4.13;;;8.30;99.90;;;;;;5012550;28;20034;-63
2022/04/12 05:58:43;;;;;;;5.63;4.30;;;8.40;99.90;;;;;;5012654;28;20040;-65
2022/04/12 06:01:09;;;;;;;8.73;4.20;;;8.40;99.90;;;;;;5012561;28;20034;-65
2022/04/12 06:03:34;;;;;;;7.87;4.50;;;8.50;99.90;;;;;;4995046;28;20026;-65
2022/04/12 06:06:00;;;;;;;10.37;5.20;;;8.50;99.90;;;;;;5015377;28;20065;-63
2022/04/12 06:08:26;;;;;;;11.50;4.77;;;8.50;99.90;;;;;;5017547;28;20030;-64
2022/04/12 06:10:52;;;;;;;12.07;4.40;;;8.60;99.90;;;;;;5016425;28;20453;-61
2022/04/12 06:13:18;;;;;;;7.57;4.70;;;8.60;99.90;;;;;;5016371;28;20041;-63
2022/04/12 06:15:44;;;;;;;9.45;5.30;;;8.70;99.90;;;;;;5016265;28;20029;-64
2022/04/12 06:18:10;;;;;;;9.85;4.28;;;8.80;99.90;;;;;;5016207;28;20040;-63
2022/04/12 06:20:36;;;;;;;7.57;4.38;;;8.80;99.90;;;;;;5016199;28;20484;-65
2022/04/12 06:23:02;;;;;;;6.55;4.18;;;8.90;99.90;;;;;;5017300;28;20037;-65
2022/04/12 06:25:28;;;;;;;6.70;4.38;;;9.00;99.90;;;;;;5016966;28;20037;-65
2022/04/12 06:27:53;;;;;;;7.53;4.17;;;9.10;99.90;;;;;;5016166;28;20022;-63
2022/04/12 06:30:22;;;;;;;7.72;4.88;;;9.20;99.90;;;;;;5016096;28;20631;-63
2022/04/12 06:32:48;;;;;;;9.45;4.45;;;9.30;99.90;;;;;;5015992;28;20033;-63
2022/04/12 06:35:15;;;;;;;7.90;4.43;;;9.30;99.90;;;;;;4998658;28;20424;-63
2022/04/12 06:37:41;;;;;;;;;;;9.40;99.90;;;;;;5016115;28;20030;-63
2022/04/12 06:40:09;;;;;;;6.68;4.30;;;9.50;99.90;;;;;;5015607;28;19977;-63
2022/04/12 06:42:35;;;;;;;6.65;4.15;;;9.50;99.90;;;;;;5015785;28;20022;-64
2022/04/12 06:45:01;;;;;;;6.03;4.03;;;9.60;99.90;;;;;;5015750;28;20358;-63
2022/04/12 06:47:26;;;;;;;9.30;4.63;;;9.70;99.90;;;;;;5015381;28;20058;-65
2022/04/12 06:49:52;;;;;;;6.47;4.40;;;9.80;99.90;;;;;;5015477;28;20080;-65
2022/04/12 06:52:20;;;;;;;7.15;4.70;;;9.90;99.90;;;;;;5015638;28;20076;-65
2022/04/12 06:54:46;;;;;;;7.70;4.43;;;10.00;99.90;;;;;;5015421;28;20156;-63
2022/04/12 06:57:12;;;;;;;6.07;4.30;;;10.10;99.90;;;;;;5015500;28;20543;-65
2022/04/12 06:59:38;;;;;;;8.38;5.00;;;10.20;99.90;;;;;;5015442;28;20030;-66
2022/04/12 07:02:04;;;;;;;7.28;4.38;;;10.20;99.90;;;;;;5015800;28;20033;-64
2022/04/12 07:04:31;;;;;;;10.30;5.18;;;10.30;99.90;;;;;;5016302;28;20026;-65
2022/04/12 07:06:57;;;;;;;8.90;4.13;;;10.40;99.90;;;;;;5015549;28;20026;-66
2022/04/12 07:09:31;;;;;;;9.38;4.18;;;10.50;99.90;;;;;;5015404;28;20118;-65
2022/04/12 07:11:58;;;;;;;6.82;3.90;;;10.60;99.90;;;;;;5016945;28;20105;-65
2022/04/12 07:14:25;;;;;;;7.25;3.95;;;10.70;99.90;;;;;;5015428;28;20021;-66
2022/04/12 07:16:50;;;;;;;8.25;3.92;;;10.80;99.90;;;;;;4997230;28;20057;-63
2022/04/12 07:19:16;;;;;;;13.10;4.80;;;10.90;99.90;;;;;;5014860;28;20062;-65
2022/04/12 07:21:42;;;;;;;6.45;4.00;;;11.00;99.90;;;;;;5014844;28;20022;-66
2022/04/12 07:24:08;;;;;;;10.80;4.60;;;11.10;99.90;;;;;;5014782;28;20547;-65
2022/04/12 07:26:35;;;;;;;7.85;3.72;;;11.30;99.90;;;;;;4997111;28;20026;-66
2022/04/12 07:29:01;;;;;;;5.90;3.88;;;11.50;99.90;;;;;;5014743;28;20026;-66
2022/04/12 07:31:26;;;;;;;6.37;4.03;;;11.60;99.90;;;;;;5014863;28;20021;-65
2022/04/12 07:33:52;;;;;;;7.55;3.70;;;11.80;99.90;;;;;;4997366;28;20025;-65
2022/04/12 07:36:18;;;;;;;5.57;3.63;;;12.00;99.90;;;;;;5014980;28;20033;-65
2022/04/12 07:38:44;;;;;;;8.23;4.05;;;12.10;99.90;;;;;;5015065;28;20030;-66
2022/04/12 07:41:10;;;;;;;5.10;3.67;;;12.20;99.90;;;;;;5018766;28;20034;-64
2022/04/12 07:43:36;;;;;;;8.50;3.67;;;12.40;99.90;;;;;;5017734;28;20040;-65
2022/04/12 07:46:02;;;;;;;7.22;3.05;;;12.60;99.90;;;;;;4998063;28;20446;-66
2022/04/12 07:48:27;;;;;;;5.22;3.40;;;12.80;99.90;;;;;;5019840;28;20096;-64
2022/04/12 07:50:54;;;;;;;6.25;3.35;;;13.00;99.80;;;;;;5071706;23;20461;-60
2022/04/12 07:53:20;;;;;;;5.47;3.65;;;13.00;99.60;;;;;;5054716;28;20108;-54
2022/04/12 07:55:45;;;;;;;6.32;4.43;;;13.10;99.90;;;;;;5054243;28;20396;-62
2022/04/12 07:58:11;;;;;;;6.72;4.10;;;13.20;99.80;;;;;;5054584;28;20423;-61
2022/04/12 08:00:37;;;;;;;5.00;3.28;;;13.40;99.50;;;;;;5054366;28;20036;-61
2022/04/12 08:03:03;;;;;;;7.53;3.42;;;13.40;99.30;;;;;;5054944;28;20040;-61
2022/04/12 08:05:28;;;;;;;7.85;3.35;;;13.50;99.30;;;;;;5054687;28;20057;-61
2022/04/12 08:07:54;;;;;;;13.00;5.15;;;13.60;99.10;;;;;;5054496;28;20474;-61
2022/04/12 08:10:21;;;;;;;10.02;3.78;;;13.60;99.30;;;;;;5036432;28;20410;-62
2022/04/12 08:12:46;;;;;;;;;;;13.60;98.80;;;;;;5054687;28;20040;-64
2022/04/12 08:15:14;;;;;;;7.97;3.60;;;13.70;98.60;;;;;;5054426;28;19905;-62
2022/04/12 08:17:41;;;;;;;6.53;3.35;;;13.70;98.50;;;;;;5036354;28;20367;-61
2022/04/12 08:20:07;;;;;;;;;;;13.90;98.20;;;;;;5054729;28;20017;-62
2022/04/12 08:22:33;;;;;;;6.28;2.80;;;14.10;98.00;;;;;;5054362;28;19904;-63
2022/04/12 08:24:59;;;;;;;5.43;2.97;;;14.20;97.00;;;;;;5054655;28;20399;-63
2022/04/12 08:27:25;;;;;;;;;;;14.50;96.50;;;;;;5054717;28;20025;-62
2022/04/12 08:29:51;;;;;;;5.90;2.28;;;15.10;94.90;;;;;;5036212;28;19905;-62
2022/04/12 08:32:17;;;;;;;3.95;2.55;;;16.10;92.10;;;;;;5054201;28;20427;-62
2022/04/12 08:34:44;;;;;;;4.25;2.22;;;17.30;90.70;;;;;;5053894;28;20041;-61
2022/04/12 08:37:10;;;;;;;3.20;2.15;;;18.90;83.40;;;;;;5053936;28;20108;-62
2022/04/12 08:39:35;;;;;;;5.40;2.42;;;20.50;76.50;;;;;;5054012;28;20029;-62
2022/04/12 08:42:03;;;;;;;4.90;2.90;;;21.90;70.20;;;;;;5053625;28;20037;-62
2022/04/12 08:44:30;;;;;;;7.57;2.90;;;22.40;65.60;;;;;;5053927;28;20048;-63
2022/04/12 08:46:57;;;;;;;4.68;2.60;;;23.00;63.30;;;;;;5053757;28;20025;-62
2022/04/12 08:49:23;;;;;;;5.50;2.40;;;23.70;60.90;;;;;;5052996;28;20061;-62
2022/04/12 08:51:49;;;;;;;5.03;2.42;;;23.50;60.20;;;;;;5053413;28;20090;-61
2022/04/12 08:54:19;;;;;;;4.75;2.47;;;24.00;59.20;;;;;;5035365;28;20645;-62
2022/04/12 08:56:48;;;;;;;3.42;2.28;;;24.30;58.30;;;;;;5053404;28;20029;-62
2022/04/12 08:59:13;;;;;;;3.97;2.35;;;24.40;56.80;;;;;;5035508;28;20021;-63
2022/04/12 09:01:41;;;;;;;3.92;2.83;;;24.70;56.50;;;;;;5053720;28;20027;-63
2022/04/12 09:04:07;;;;;;;6.90;3.10;;;24.60;55.40;;;;;;5035898;28;20505;-62
2022/04/12 09:06:32;;;;;;;4.00;2.83;;;24.70;56.10;;;;;;5053218;28;20068;-63
2022/04/12 09:09:12;;;;;;;5.28;2.30;;;24.90;55.70;;;;;;5053723;28;20093;-63
2022/04/12 09:11:41;;;;;;;4.30;2.50;;;24.60;55.50;;;;;;5053341;28;20013;-64
2022/04/12 09:14:13;;;;;;;4.10;2.13;;;24.40;55.30;;;;;;5053000;28;20150;-64
2022/04/12 09:16:43;;;;;;;4.55;2.30;;;24.40;55.50;;;;;;5053302;28;20028;-64
2022/04/12 09:19:09;;;;;;;6.82;2.15;;;24.50;55.60;;;;;;5052778;28;20100;-63
2022/04/12 09:21:47;;;;;;;4.55;2.05;;;24.60;55.60;;;;;;5036038;28;20442;-64
2022/04/12 09:24:22;;;;;;;4.90;2.17;;;25.20;55.40;;;;;;5054531;28;20045;-64
2022/04/12 09:26:56;;;;;;;5.85;2.08;;;25.60;55.30;;;;;;5053711;28;20091;-63
2022/04/12 09:29:30;;;;;;;5.72;2.20;;;26.10;54.30;;;;;;5054208;28;20021;-64
2022/04/12 09:31:58;;;;;;;5.15;2.20;;;26.00;53.80;;;;;;5053144;28;20021;-64
2022/04/12 09:34:24;;;;;;;6.13;2.03;;;26.10;53.70;;;;;;5052865;28;20044;-63
2022/04/12 09:36:50;;;;;;;6.63;2.15;;;26.50;53.30;;;;;;5052892;28;20094;-63
2022/04/12 09:39:19;;;;;;;2.95;2.10;;;26.90;53.30;;;;;;5054121;28;20479;-65
2022/04/12 09:41:49;;;;;;;4.55;2.53;;;27.70;52.00;;;;;;5056592;28;20028;-62
2022/04/12 09:44:19;;;;;;;5.05;1.98;;;28.30;51.40;;;;;;5056449;28;20604;-64
2022/04/12 09:46:45;;;;;;;4.55;1.77;;;28.60;50.40;;;;;;5056800;28;20021;-63
2022/04/12 09:49:11;;;;;;;4.63;2.00;;;29.30;49.70;;;;;;5056493;28;20024;-65
2022/04/12 09:51:38;;;;;;;5.13;2.28;;;29.90;49.00;;;;;;5056660;28;20029;-64
2022/04/12 09:54:06;;;;;;;4.55;2.22;;;30.30;48.40;;;;;;5056158;28;20071;-62
2022/04/12 09:56:33;;;;;;;7.40;2.42;;;31.00;47.60;;;;;;5038219;28;20479;-63
2022/04/12 09:59:07;;;;;;;3.72;2.08;;;30.80;47.20;;;;;;5056217;28;20017;-63
2022/04/12 10:01:39;;;;;;;3.28;1.98;;;31.70;46.00;;;;;;5056473;28;20024;-64
2022/04/12 10:04:08;;;;;;;3.53;2.28;;;32.50;45.50;;;;;;5056572;28;20154;-64
2022/04/12 10:06:39;;;;;;;4.88;2.10;;;33.30;44.80;;;;;;5056063;28;20479;-63
2022/04/12 10:09:07;;;;;;;6.65;2.25;;;33.70;44.10;;;;;;5038371;28;20033;-64
2022/04/12 10:11:33;;;;;;;4.72;2.30;;;34.00;43.70;;;;;;5037905;28;20021;-64
2022/04/12 10:14:01;;;;;;;6.80;2.50;;;34.70;43.30;;;;;;5038081;28;20032;-64
2022/04/12 10:16:27;;;;;;;3.95;2.47;;;34.80;43.10;;;;;;5055842;28;20024;-63
2022/04/12 10:18:54;;;;;;;3.80;2.28;;;35.20;42.70;;;;;;5055690;28;20147;-63
2022/04/12 10:21:22;;;;;;;3.88;2.65;;;34.90;42.40;;;;;;5056006;28;20043;-64
2022/04/12 10:23:53;;;;;;;4.18;2.25;;;34.20;42.80;;;;;;5037741;28;20387;-65
2022/04/12 10:26:23;;;;;;;5.10;2.08;;;34.20;43.00;;;;;;5055876;28;20025;-64
2022/04/12 10:29:04;;;;;;;3.47;2.38;;;33.80;42.90;;;;;;5056222;28;20538;-64
2022/04/12 10:31:31;;;;;;;2.80;2.30;;;33.60;43.10;;;;;;5055987;28;20116;-63
2022/04/12 10:34:03;;;;;;;2.92;2.25;;;32.70;43.30;;;;;;5056094;28;20037;-63
2022/04/12 10:36:54;;;;;;;4.18;2.30;;;32.50;43.80;;;;;;5056660;28;20530;-64
2022/04/12 10:39:31;;;;;;;2.90;2.22;;;32.80;43.70;;;;;;5056250;28;20032;-65
2022/04/12 10:41:58;;;;;;;5.50;2.47;;;33.10;43.80;;;;;;5057140;28;20021;-64
2022/04/12 10:44:25;;;;;;;3.50;2.58;;;33.50;43.30;;;;;;5055576;28;20048;-63
2022/04/12 10:46:52;;;;;;;5.72;2.22;;;33.70;43.10;;;;;;5055890;28;20067;-64
2022/04/12 10:49:21;;;;;;;3.15;2.30;;;33.10;43.70;;;;;;5055066;28;20147;-63
2022/04/12 10:51:59;;;;;;;8.05;2.33;;;32.40;44.00;;;;;;5054947;28;20021;-63
2022/04/12 10:54:30;;;;;;;7.25;2.60;;;32.60;44.40;;;;;;5055853;28;20044;-64
2022/04/12 10:57:24;;;;;;;3.28;2.15;;;32.50;44.20;;;;;;5055748;28;20025;-63
2022/04/12 11:00:11;;;;;;;3.50;2.13;;;32.30;44.20;;;;;;5037073;28;20040;-64
2022/04/12 11:02:42;;;;;;;4.13;2.40;;;32.30;44.10;;;;;;5055495;28;20028;-64
2022/04/12 11:05:30;;;;;;;6.15;2.10;;;31.60;44.70;;;;;;5037092;28;20021;-65
2022/04/12 11:07:56;;;;;;;3.58;2.03;;;30.30;45.80;;;;;;5055403;28;20025;-63
2022/04/12 11:10:23;;;;;;;6.53;2.58;;;29.80;46.60;;;;;;5055087;28;20441;-63
2022/04/12 11:12:51;;;;;;;6.05;2.08;;;29.10;47.30;;;;;;5055453;28;20032;-65
2022/04/12 11:15:27;;;;;;;5.85;2.55;;;27.90;48.50;;;;;;5054717;28;20032;-66
2022/04/12 11:18:07;;;;;;;6.80;2.85;;;27.20;50.50;;;;;;5055471;28;20025;-65
2022/04/12 11:20:33;;;;;;;6.68;2.20;;;26.40;51.40;;;;;;5054572;28;20455;-66
2022/04/12 11:23:07;;;;;;;4.05;2.20;;;25.90;51.80;;;;;;5054592;28;20021;-66
2022/04/12 11:25:33;;;;;;;2.97;1.95;;;25.40;52.50;;;;;;5037151;28;20031;-66
2022/04/12 11:27:59;;;;;;;4.95;2.40;;;25.00;52.80;;;;;;5036961;28;20383;-65
2022/04/12 11:30:26;;;;;;;3.50;2.08;;;24.30;53.40;;;;;;5054633;28;20029;-65
2022/04/12 11:32:57;;;;;;;3.80;2.25;;;23.90;54.90;;;;;;5054940;28;20024;-66
2022/04/12 11:35:23;;;;;;;4.93;2.00;;;23.60;55.10;;;;;;5054726;28;20075;-66
2022/04/12 11:37:49;;;;;;;;;;;23.50;55.70;;;;;;5055008;28;20028;-66
2022/04/12 11:40:15;;;;;;;3.92;2.40;;;23.40;55.90;;;;;;5054399;28;19999;-65
2022/04/12 11:42:41;;;;;;;;;;;23.30;56.20;;;;;;5055774;28;20130;-66
2022/04/12 11:45:07;;;;;;;6.25;2.10;;;23.20;56.70;;;;;;5054641;28;20055;-68
2022/04/12 11:47:39;;;;;;;2.67;1.92;;;23.30;56.50;;;;;;5054308;28;20028;-66
2022/04/12 11:50:16;;;;;;;4.53;1.85;;;23.20;57.00;;;;;;5036202;28;20098;-66
2022/04/12 11:52:44;;;;;;;5.13;1.92;;;23.10;57.40;;;;;;5054162;28;20020;-66
2022/04/12 11:55:11;;;;;;;3.35;2.10;;;22.90;56.70;;;;;;5054339;28;20193;-66
2022/04/12 11:57:36;;;;;;;3.22;1.58;;;22.90;57.40;;;;;;5054286;28;20028;-66
2022/04/12 12:00:03;;;;;;;4.70;1.98;;;23.00;57.10;;;;;;5036099;28;20025;-65
2022/04/12 12:02:31;;;;;;;3.55;1.65;;;23.00;57.60;;;;;;5054264;28;20037;-66
2022/04/12 12:04:59;;;;;;;3.20;1.52;;;23.00;57.40;;;;;;5054523;28;20032;-66
2022/04/12 12:07:27;;;;;;;4.10;1.60;;;23.10;57.30;;;;;;5054939;28;20025;-65
2022/04/12 12:10:09;;;;;;;7.63;1.98;;;23.00;57.60;;;;;;5053912;28;20025;-65
2022/04/12 12:12:45;;;;;;;3.90;1.35;;;23.00;56.70;;;;;;5053993;28;20031;-66
2022/04/12 12:15:27;;;;;;;4.25;1.50;;;23.10;56.40;;;;;;5053701;28;20116;-65
2022/04/12 12:17:54;;;;;;;1.77;1.35;;;23.20;56.90;;;;;;5053679;28;20025;-66
2022/04/12 12:20:22;;;;;;;13.88;1.88;;;23.30;56.60;;;;;;5053385;28;20029;-65
2022/04/12 12:22:58;;;;;;;5.20;3.08;;;23.40;56.30;;;;;;5035491;28;20025;-65
2022/04/12 12:25:43;;;;;;;2.60;1.45;;;23.50;56.90;;;;;;5054175;28;20096;-65
2022/04/12 12:28:15;;;;;;;2.72;1.42;;;23.50;56.20;;;;;;5053387;28;20025;-66
2022/04/12 12:30:42;;;;;;;3.75;1.77;;;23.50;55.90;;;;;;5053604;28;20509;-65
2022/04/12 12:33:08;;;;;;;5.75;1.92;;;23.50;56.50;;;;;;5053454;28;20021;-65
2022/04/12 12:35:37;;;;;;;6.18;1.65;;;23.60;56.00;;;;;;5057098;28;20025;-63
2022/04/12 12:38:11;;;;;;;9.88;1.50;;;23.80;55.90;;;;;;5056186;28;20025;-62
2022/04/12 12:40:37;;;;;;;3.75;1.50;;;23.80;55.80;;;;;;5054556;28;20499;-62
2022/04/12 12:43:08;;;;;;;5.47;1.55;;;23.80;55.30;;;;;;5055786;28;20021;-63
2022/04/12 12:45:38;;;;;;;4.82;1.63;;;23.90;55.60;;;;;;5056713;28;20025;-63
2022/04/12 12:48:07;;;;;;;7.95;2.20;;;24.00;55.20;;;;;;5054992;28;20100;-61
2022/04/12 12:50:35;;;;;;;3.88;1.30;;;23.90;54.30;;;;;;5054558;28;20029;-64
2022/04/12 12:53:03;;;;;;;2.92;1.35;;;24.10;54.20;;;;;;5037106;28;20383;-64
2022/04/12 12:55:34;;;;;;;5.30;1.33;;;24.10;53.60;;;;;;5055638;28;20040;-59